Time;durP1;ratioP1;P1;durP2;ratioP2;P2;SDS_P1;SDS_P2;PMS_P1;PMS_P2;Temp;Humidity;BMP_temperature;BMP_pressure;BME280_temperature;BME280_humidity;BME280_pressure;Samples;Min_cycle;Max_cycle;Signal;HPM_P1;HPM_P2
2022/07/04 00:00:38;;;;;;;14.52;9.07;;;25.30;99.90;;;;;;5130459;27;20062;-67
2022/07/04 00:03:05;;;;;;;22.65;8.88;;;25.30;99.90;;;;;;5128811;27;20433;-71
2022/07/04 00:05:31;;;;;;;13.10;7.50;;;25.20;99.90;;;;;;5126692;27;20021;-68
2022/07/04 00:07:57;;;;;;;15.45;8.40;;;25.20;99.90;;;;;;5130988;27;20022;-68
2022/07/04 00:10:23;;;;;;;13.38;8.75;;;25.20;99.90;;;;;;5131488;27;20019;-69
2022/07/04 00:12:49;;;;;;;12.45;7.93;;;25.20;99.90;;;;;;5127726;27;20036;-66
2022/07/04 00:15:15;;;;;;;14.02;7.57;;;25.20;99.90;;;;;;5131811;27;20023;-70
2022/07/04 00:17:41;;;;;;;14.45;8.60;;;25.20;99.90;;;;;;5131411;27;20030;-70
2022/07/04 00:20:09;;;;;;;11.23;7.15;;;25.00;99.90;;;;;;5132338;27;20031;-70
2022/07/04 00:22:35;;;;;;;14.95;8.40;;;25.10;99.90;;;;;;5132741;27;20030;-63
2022/07/04 00:25:01;;;;;;;16.48;7.75;;;25.10;99.90;;;;;;5127634;27;20496;-69
2022/07/04 00:27:27;;;;;;;11.95;7.35;;;25.20;99.90;;;;;;5130185;27;20172;-69
2022/07/04 00:29:53;;;;;;;14.05;7.80;;;25.10;99.90;;;;;;5121568;27;20389;-70
2022/07/04 00:32:19;;;;;;;11.88;7.72;;;25.10;99.90;;;;;;5129737;27;20119;-67
2022/07/04 00:34:45;;;;;;;14.50;8.18;;;25.10;99.90;;;;;;5131383;27;20034;-66
2022/07/04 00:37:11;;;;;;;12.23;7.43;;;25.00;99.90;;;;;;5128747;27;20031;-71
2022/07/04 00:39:37;;;;;;;15.95;8.02;;;25.00;99.90;;;;;;5131624;27;20023;-71
2022/07/04 00:42:03;;;;;;;12.70;8.15;;;25.00;99.90;;;;;;5132394;27;20066;-70
2022/07/04 00:44:31;;;;;;;20.15;8.18;;;25.00;99.90;;;;;;5124835;27;20031;-70
2022/07/04 00:46:57;;;;;;;10.70;6.93;;;24.90;99.90;;;;;;5126881;27;20069;-70
2022/07/04 00:49:23;;;;;;;14.88;8.13;;;25.00;99.90;;;;;;5132834;27;20035;-70
2022/07/04 00:51:49;;;;;;;14.90;7.55;;;25.00;99.90;;;;;;5131721;27;20038;-68
2022/07/04 00:54:21;;;;;;;14.30;7.20;;;24.90;99.90;;;;;;5133108;27;20702;-71
2022/07/04 00:56:46;;;;;;;14.90;8.60;;;24.90;99.90;;;;;;5132904;27;20031;-69
2022/07/04 00:59:12;;;;;;;11.95;8.02;;;24.80;99.90;;;;;;5132561;27;20030;-69
2022/07/04 01:01:39;;;;;;;18.55;7.68;;;24.90;99.90;;;;;;5132877;27;20030;-71
2022/07/04 01:04:06;;;;;;;13.65;7.88;;;24.80;99.90;;;;;;5122736;27;20026;-70
2022/07/04 01:06:33;;;;;;;13.75;7.95;;;24.80;99.90;;;;;;5128222;27;20039;-69
2022/07/04 01:09:00;;;;;;;14.00;8.20;;;24.80;99.90;;;;;;5125989;27;20022;-69
2022/07/04 01:11:26;;;;;;;12.57;8.65;;;24.70;99.90;;;;;;5121595;27;20047;-70
2022/07/04 01:13:54;;;;;;;19.40;8.32;;;24.70;99.90;;;;;;5111262;28;20016;-69
2022/07/04 01:16:20;;;;;;;14.52;8.57;;;24.70;99.90;;;;;;5111256;28;20032;-67
2022/07/04 01:18:46;;;;;;;13.48;8.38;;;24.70;99.90;;;;;;5110669;28;20073;-65
2022/07/04 01:21:12;;;;;;;18.35;8.77;;;24.60;99.90;;;;;;5110587;28;20059;-69
2022/07/04 01:23:39;;;;;;;18.58;8.82;;;24.70;99.90;;;;;;5109315;28;20054;-64
2022/07/04 01:26:06;;;;;;;13.88;8.73;;;24.80;99.90;;;;;;5106380;28;20043;-65
2022/07/04 01:28:31;;;;;;;13.50;8.60;;;24.80;99.90;;;;;;5109046;28;20023;-67
2022/07/04 01:30:57;;;;;;;13.25;7.93;;;24.70;99.90;;;;;;5114431;27;20036;-69
2022/07/04 01:33:23;;;;;;;14.48;9.20;;;24.70;99.90;;;;;;5110493;28;20035;-70
2022/07/04 01:35:49;;;;;;;12.70;7.78;;;24.80;99.90;;;;;;5112892;28;20445;-70
2022/07/04 01:38:16;;;;;;;14.07;8.35;;;24.70;99.90;;;;;;5113299;27;20122;-70
2022/07/04 01:40:42;;;;;;;17.42;8.70;;;24.80;99.90;;;;;;5109967;28;20059;-71
2022/07/04 01:43:08;;;;;;;13.52;8.10;;;24.80;99.90;;;;;;5111244;28;20085;-70
2022/07/04 01:45:37;;;;;;;17.27;8.57;;;24.80;99.90;;;;;;5110073;28;20030;-70
2022/07/04 01:48:13;;;;;;;13.65;8.52;;;24.70;99.90;;;;;;5110086;28;20031;-67
2022/07/04 01:50:39;;;;;;;17.42;9.35;;;24.60;99.90;;;;;;5109913;28;20088;-65
2022/07/04 01:53:05;;;;;;;15.00;9.10;;;24.40;99.90;;;;;;5110441;28;20024;-66
2022/07/04 01:55:32;;;;;;;14.50;8.77;;;;;;;;;;5109996;28;20461;-68
2022/07/04 01:57:58;;;;;;;17.13;8.32;;;24.40;99.90;;;;;;5110032;28;20024;-67
2022/07/04 02:03:10;;;;;;;14.77;9.13;;;24.40;99.90;;;;;;5110729;28;20034;-68
2022/07/04 02:05:39;;;;;;;14.52;9.70;;;24.40;99.90;;;;;;5118389;27;20020;-69
2022/07/04 02:08:06;;;;;;;14.32;9.35;;;24.50;99.90;;;;;;5118305;27;20106;-69
2022/07/04 02:10:31;;;;;;;23.23;9.80;;;24.60;99.90;;;;;;5114114;28;20068;-68
2022/07/04 02:13:03;;;;;;;16.85;9.20;;;24.60;99.90;;;;;;5120502;27;20035;-70
2022/07/04 02:15:38;;;;;;;19.33;8.75;;;24.70;99.90;;;;;;5136554;27;20434;-70
2022/07/04 02:18:06;;;;;;;13.90;8.25;;;24.70;99.90;;;;;;5136025;27;20058;-70
2022/07/04 02:20:34;;;;;;;15.40;9.32;;;24.60;99.90;;;;;;5135725;27;20015;-69
2022/07/04 02:23:00;;;;;;;14.35;8.77;;;24.50;99.90;;;;;;5135548;27;20033;-70
2022/07/04 02:25:26;;;;;;;19.17;7.70;;;24.60;99.90;;;;;;5135685;27;20053;-71
2022/07/04 02:27:54;;;;;;;18.73;9.10;;;24.50;99.90;;;;;;5135696;27;20020;-70
2022/07/04 02:30:20;;;;;;;15.38;9.82;;;24.40;99.90;;;;;;5135548;27;20023;-68
2022/07/04 02:32:46;;;;;;;14.88;8.15;;;24.40;99.90;;;;;;5120348;27;20405;-70
2022/07/04 02:35:12;;;;;;;16.02;9.20;;;24.40;99.90;;;;;;5135236;27;20385;-69
2022/07/04 02:37:38;;;;;;;15.40;8.85;;;24.40;99.90;;;;;;5135500;27;20113;-71
2022/07/04 02:40:05;;;;;;;14.60;8.88;;;24.40;99.90;;;;;;5135295;27;20144;-70
2022/07/04 02:42:33;;;;;;;17.88;9.10;;;24.40;99.90;;;;;;5134509;27;20027;-70
2022/07/04 02:44:59;;;;;;;16.88;8.75;;;24.30;99.90;;;;;;5127611;27;20024;-69
2022/07/04 02:47:26;;;;;;;16.13;9.93;;;24.30;99.90;;;;;;5135280;27;20043;-70
2022/07/04 02:49:52;;;;;;;13.05;8.57;;;24.30;99.90;;;;;;5134044;27;20218;-70
2022/07/04 02:52:18;;;;;;;13.75;9.13;;;24.20;99.90;;;;;;5135065;27;20035;-69
2022/07/04 02:54:45;;;;;;;17.00;9.32;;;24.20;99.90;;;;;;5135139;27;20019;-70
2022/07/04 02:57:11;;;;;;;14.95;8.40;;;24.20;99.90;;;;;;5134846;27;20469;-68
2022/07/04 02:59:37;;;;;;;14.73;8.27;;;24.40;99.90;;;;;;5134985;27;20046;-70
2022/07/04 03:02:03;;;;;;;14.50;7.97;;;24.30;99.90;;;;;;5130833;27;20457;-70
2022/07/04 03:04:29;;;;;;;15.75;8.55;;;24.40;99.90;;;;;;5131422;27;20020;-71
2022/07/04 03:06:55;;;;;;;13.43;7.93;;;24.30;99.90;;;;;;5133677;27;20027;-71
2022/07/04 03:09:21;;;;;;;14.35;9.38;;;24.30;99.90;;;;;;5134417;27;20088;-70
2022/07/04 03:11:47;;;;;;;16.17;8.85;;;24.40;99.90;;;;;;5134663;27;20043;-71
2022/07/04 03:14:12;;;;;;;12.48;7.95;;;24.40;99.90;;;;;;5134658;27;20173;-70
2022/07/04 03:16:38;;;;;;;20.27;8.77;;;24.30;99.90;;;;;;5130621;27;20492;-68
2022/07/04 03:19:04;;;;;;;12.77;7.90;;;24.40;99.90;;;;;;5133546;27;20016;-70
2022/07/04 03:21:30;;;;;;;17.60;8.27;;;24.40;99.90;;;;;;5134013;27;20088;-70
2022/07/04 03:23:59;;;;;;;15.57;7.93;;;24.40;99.90;;;;;;5134330;27;20069;-70
2022/07/04 03:26:25;;;;;;;14.93;8.52;;;24.50;99.90;;;;;;5134440;27;20099;-70
2022/07/04 03:28:52;;;;;;;14.15;7.60;;;24.60;99.90;;;;;;5133945;27;20072;-69
2022/07/04 03:31:18;;;;;;;13.18;7.30;;;24.60;99.90;;;;;;5119956;27;20084;-69
2022/07/04 03:33:43;;;;;;;13.75;7.45;;;24.60;99.90;;;;;;5133604;27;20027;-69
2022/07/04 03:36:09;;;;;;;13.95;7.32;;;24.70;99.90;;;;;;5133705;27;20512;-69
2022/07/04 03:38:35;;;;;;;15.18;7.57;;;24.80;99.90;;;;;;5134558;27;20035;-68
2022/07/04 03:41:01;;;;;;;16.02;7.60;;;24.80;99.90;;;;;;5133699;27;20055;-70
2022/07/04 03:43:27;;;;;;;10.98;6.90;;;24.90;99.90;;;;;;5129942;27;20034;-70
2022/07/04 03:45:53;;;;;;;16.38;7.70;;;25.00;99.90;;;;;;5130289;27;20241;-70
2022/07/04 03:48:20;;;;;;;12.68;7.18;;;25.20;99.90;;;;;;5133197;27;20048;-70
2022/07/04 03:50:46;;;;;;;9.77;6.20;;;25.30;99.90;;;;;;5134381;27;20449;-71
2022/07/04 03:53:12;;;;;;;10.80;6.68;;;25.20;99.90;;;;;;5131808;27;20035;-70
2022/07/04 03:55:39;;;;;;;10.38;6.53;;;25.30;99.90;;;;;;5132108;27;20380;-70
2022/07/04 03:58:05;;;;;;;13.82;7.05;;;25.30;99.90;;;;;;5133156;27;20039;-70
2022/07/04 04:00:31;;;;;;;11.40;6.22;;;25.30;99.90;;;;;;5118801;27;20064;-70
2022/07/04 04:02:58;;;;;;;12.30;6.90;;;25.30;99.90;;;;;;5133731;27;20088;-70
2022/07/04 04:05:27;;;;;;;12.40;6.63;;;25.40;99.90;;;;;;5116435;27;20040;-71
2022/07/04 04:07:56;;;;;;;11.15;7.15;;;25.50;99.90;;;;;;5133263;27;20509;-69
2022/07/04 04:10:22;;;;;;;10.30;7.10;;;25.70;99.90;;;;;;5133014;27;20027;-70
2022/07/04 04:12:48;;;;;;;11.05;6.60;;;25.80;99.90;;;;;;5132980;27;20043;-70
2022/07/04 04:15:14;;;;;;;12.10;6.68;;;26.10;99.90;;;;;;5131743;27;20088;-70
2022/07/04 04:17:40;;;;;;;13.38;6.47;;;26.60;99.90;;;;;;5129156;27;20035;-62
2022/07/04 04:20:08;;;;;;;10.55;6.28;;;26.80;99.90;;;;;;5131320;27;20023;-70
2022/07/04 04:22:34;;;;;;;17.60;7.10;;;27.00;99.90;;;;;;5133067;27;20038;-71
2022/07/04 04:25:00;;;;;;;16.92;6.72;;;26.90;99.90;;;;;;5133141;27;20023;-70
2022/07/04 04:27:26;;;;;;;10.38;6.10;;;26.90;99.90;;;;;;5132978;27;20055;-71
2022/07/04 04:29:52;;;;;;;13.25;6.78;;;27.00;99.90;;;;;;5132903;27;20023;-71
2022/07/04 04:32:18;;;;;;;12.25;6.65;;;27.00;99.90;;;;;;5132308;27;20503;-70
2022/07/04 04:34:44;;;;;;;11.70;6.85;;;27.20;99.90;;;;;;5132954;27;20022;-71
2022/07/04 04:37:10;;;;;;;11.88;7.28;;;27.10;99.90;;;;;;5131024;27;20470;-70
2022/07/04 04:39:36;;;;;;;10.93;7.18;;;27.00;99.90;;;;;;5129975;27;20504;-70
2022/07/04 04:42:02;;;;;;;12.38;7.25;;;27.20;99.90;;;;;;5132239;27;20085;-70
2022/07/04 04:44:27;;;;;;;11.00;7.07;;;27.40;99.90;;;;;;5119826;27;20032;-70
2022/07/04 04:46:53;;;;;;;11.65;6.70;;;27.90;99.90;;;;;;5126703;27;20072;-71
2022/07/04 04:49:19;;;;;;;12.25;7.22;;;28.20;99.90;;;;;;5122702;27;20026;-71
2022/07/04 04:51:45;;;;;;;13.27;7.10;;;28.10;99.90;;;;;;5132642;27;20493;-70
2022/07/04 04:54:11;;;;;;;14.10;6.70;;;27.80;99.90;;;;;;5132917;27;20035;-70
2022/07/04 04:56:37;;;;;;;11.70;6.93;;;27.40;99.90;;;;;;5132679;27;20041;-70
2022/07/04 04:59:03;;;;;;;12.35;7.57;;;26.90;99.90;;;;;;5132231;27;20023;-70
2022/07/04 05:01:29;;;;;;;13.98;6.93;;;26.40;99.90;;;;;;5132008;27;20015;-70
2022/07/04 05:03:55;;;;;;;11.48;7.40;;;26.20;99.90;;;;;;5131020;27;20157;-70
2022/07/04 05:06:20;;;;;;;14.38;7.05;;;26.00;99.90;;;;;;5131673;27;20457;-70
2022/07/04 05:08:46;;;;;;;16.42;7.57;;;25.80;99.90;;;;;;5131834;27;20019;-70
2022/07/04 05:11:12;;;;;;;12.10;6.40;;;25.70;99.90;;;;;;5122943;27;20034;-69
2022/07/04 05:13:38;;;;;;;12.80;7.20;;;25.50;99.90;;;;;;5130123;27;20126;-70
2022/07/04 05:16:04;;;;;;;11.32;7.10;;;25.50;99.90;;;;;;5132065;27;20461;-70
2022/07/04 05:18:30;;;;;;;12.88;7.43;;;25.50;99.90;;;;;;5131934;27;20025;-70
2022/07/04 05:20:56;;;;;;;10.30;6.18;;;25.50;99.90;;;;;;5132148;27;20023;-70
2022/07/04 05:23:21;;;;;;;16.17;6.88;;;25.40;99.90;;;;;;5117556;27;20023;-70
2022/07/04 05:25:48;;;;;;;11.68;6.97;;;25.30;99.90;;;;;;5132195;27;20553;-70
2022/07/04 05:28:13;;;;;;;13.43;6.82;;;25.20;99.90;;;;;;5125689;27;20529;-70
2022/07/04 05:30:39;;;;;;;15.05;7.25;;;25.20;99.90;;;;;;5130618;27;20035;-69
2022/07/04 05:33:05;;;;;;;12.43;7.32;;;25.10;99.90;;;;;;5131756;27;20557;-71
2022/07/04 05:35:31;;;;;;;10.10;6.82;;;25.10;99.90;;;;;;5131786;27;20354;-70
2022/07/04 05:37:57;;;;;;;17.25;6.93;;;25.10;99.90;;;;;;5130057;27;20023;-69
2022/07/04 05:40:23;;;;;;;12.65;7.20;;;25.10;99.90;;;;;;5127882;27;20133;-69
2022/07/04 05:42:49;;;;;;;10.88;6.88;;;25.10;99.90;;;;;;5130983;27;20035;-70
2022/07/04 05:45:15;;;;;;;12.98;7.82;;;25.20;99.90;;;;;;5131395;27;20060;-69
2022/07/04 05:47:41;;;;;;;12.10;7.15;;;25.30;99.90;;;;;;5131427;28;20051;-68
2022/07/04 05:50:09;;;;;;;14.13;6.97;;;25.20;99.90;;;;;;5127625;28;20035;-70
2022/07/04 05:52:35;;;;;;;11.38;7.20;;;25.30;99.90;;;;;;5131673;27;20041;-69
2022/07/04 05:55:01;;;;;;;12.20;6.68;;;25.30;99.90;;;;;;5131840;27;20114;-70
2022/07/04 05:57:27;;;;;;;12.98;6.75;;;25.40;99.90;;;;;;5125171;28;20422;-65
2022/07/04 05:59:53;;;;;;;13.35;7.57;;;25.40;99.90;;;;;;5120397;28;20091;-69
2022/07/04 06:02:19;;;;;;;11.85;6.65;;;25.40;99.90;;;;;;5131370;27;20473;-69
2022/07/04 06:04:44;;;;;;;12.05;6.90;;;25.50;99.90;;;;;;5119888;28;20027;-69
2022/07/04 06:07:10;;;;;;;14.52;7.45;;;25.50;99.90;;;;;;5132007;27;20023;-69
2022/07/04 06:09:36;;;;;;;17.55;7.05;;;25.60;99.90;;;;;;5130928;27;20083;-69
2022/07/04 06:12:03;;;;;;;12.45;7.13;;;25.70;99.90;;;;;;5131360;27;20111;-70
2022/07/04 06:14:29;;;;;;;16.65;6.88;;;25.70;99.90;;;;;;5131032;27;20027;-69
2022/07/04 06:16:55;;;;;;;15.88;7.05;;;25.80;99.90;;;;;;5131732;27;20030;-69
2022/07/04 06:19:21;;;;;;;12.50;7.15;;;25.90;99.90;;;;;;5131176;28;20047;-68
2022/07/04 06:21:47;;;;;;;13.13;7.53;;;25.80;99.90;;;;;;5132160;28;20031;-70
2022/07/04 06:24:14;;;;;;;16.20;7.40;;;25.70;99.90;;;;;;5130930;28;20114;-69
2022/07/04 06:26:40;;;;;;;15.55;7.97;;;25.50;99.90;;;;;;5131907;27;20027;-68
2022/07/04 06:29:06;;;;;;;16.80;8.27;;;25.50;99.90;;;;;;5131343;28;20023;-70
2022/07/04 06:31:31;;;;;;;12.60;7.68;;;25.70;99.90;;;;;;5131268;28;20027;-69
2022/07/04 06:36:42;;;;;;;13.48;8.63;;;25.80;99.90;;;;;;5124048;28;20067;-70
2022/07/04 06:39:07;;;;;;;23.13;10.70;;;25.80;99.90;;;;;;5131592;27;20366;-70
2022/07/04 06:41:33;;;;;;;19.65;9.88;;;25.70;99.90;;;;;;5131522;28;20051;-70
2022/07/04 06:43:59;;;;;;;17.80;10.30;;;25.80;99.90;;;;;;5131397;28;20456;-71
2022/07/04 06:46:25;;;;;;;15.95;9.85;;;25.70;99.90;;;;;;5131702;28;20039;-69
2022/07/04 06:48:51;;;;;;;13.43;7.75;;;25.70;99.90;;;;;;5131269;27;20019;-70
2022/07/04 06:51:17;;;;;;;16.33;8.07;;;25.80;99.90;;;;;;5132129;27;20426;-72
2022/07/04 06:53:45;;;;;;;15.07;7.68;;;25.90;99.90;;;;;;5135145;27;20015;-69
2022/07/04 06:56:11;;;;;;;14.10;7.63;;;26.00;99.90;;;;;;5123663;27;20370;-69
2022/07/04 06:58:37;;;;;;;16.42;7.15;;;26.10;99.90;;;;;;5125670;27;20027;-70
2022/07/04 07:01:03;;;;;;;13.90;7.40;;;26.20;99.90;;;;;;5135277;27;20039;-69
2022/07/04 07:03:30;;;;;;;14.07;7.85;;;26.30;99.90;;;;;;5134075;27;20106;-70
2022/07/04 07:05:58;;;;;;;11.88;7.13;;;26.20;99.90;;;;;;5134502;27;20027;-69
2022/07/04 07:08:24;;;;;;;13.95;7.82;;;26.00;99.90;;;;;;5134105;27;20098;-69
2022/07/04 07:10:50;;;;;;;19.30;7.72;;;26.00;99.90;;;;;;5133495;27;20175;-68
2022/07/04 07:13:16;;;;;;;13.43;7.85;;;25.90;99.90;;;;;;5133222;27;20501;-65
2022/07/04 07:15:42;;;;;;;22.15;9.45;;;25.80;99.90;;;;;;5118688;27;20067;-69
2022/07/04 07:18:08;;;;;;;18.35;10.20;;;25.90;99.90;;;;;;5133277;27;20023;-67
2022/07/04 07:20:34;;;;;;;14.63;8.55;;;25.90;99.90;;;;;;5133799;27;20027;-68
2022/07/04 07:23:05;;;;;;;15.18;8.55;;;25.80;99.90;;;;;;5133432;27;20023;-65
2022/07/04 07:25:31;;;;;;;14.23;8.30;;;26.00;99.90;;;;;;5130122;27;20118;-68
2022/07/04 07:27:58;;;;;;;13.27;7.55;;;26.20;99.90;;;;;;5126470;27;20057;-68
2022/07/04 07:30:24;;;;;;;15.15;7.57;;;26.30;99.90;;;;;;5126960;27;20042;-63
2022/07/04 07:32:49;;;;;;;15.88;7.70;;;26.50;99.90;;;;;;5133729;27;20035;-67
2022/07/04 07:35:15;;;;;;;11.90;6.88;;;26.60;99.90;;;;;;5133625;27;20061;-69
2022/07/04 07:37:42;;;;;;;15.57;6.97;;;26.70;99.90;;;;;;5133393;27;20029;-70
2022/07/04 07:40:09;;;;;;;14.23;7.07;;;27.00;99.90;;;;;;5131479;27;20054;-69
2022/07/04 07:42:35;;;;;;;10.65;6.78;;;27.20;99.90;;;;;;5133546;27;20099;-66
2022/07/04 07:45:01;;;;;;;12.90;7.32;;;27.40;99.90;;;;;;5119281;27;20442;-68
2022/07/04 07:47:27;;;;;;;11.55;6.72;;;27.50;99.90;;;;;;5133938;27;20019;-68
2022/07/04 07:49:53;;;;;;;12.20;6.78;;;27.80;99.90;;;;;;5132164;27;20069;-68
2022/07/04 07:52:19;;;;;;;11.75;6.03;;;28.00;99.90;;;;;;5132644;27;20048;-68
2022/07/04 07:54:45;;;;;;;16.27;7.82;;;28.10;99.90;;;;;;5133765;27;20042;-62
2022/07/04 07:57:11;;;;;;;15.65;7.82;;;28.50;99.90;;;;;;5128707;27;20479;-70
2022/07/04 07:59:36;;;;;;;12.55;6.90;;;28.60;99.90;;;;;;5131400;27;20027;-70
2022/07/04 08:02:02;;;;;;;11.10;6.47;;;28.80;99.90;;;;;;5133257;27;20019;-71
2022/07/04 08:04:34;;;;;;;10.88;6.47;;;28.90;99.90;;;;;;5133378;27;20122;-71
2022/07/04 08:07:03;;;;;;;;;;;29.10;99.90;;;;;;5133091;27;20035;-69
2022/07/04 08:09:29;;;;;;;14.30;6.90;;;29.30;99.90;;;;;;5133091;27;20014;-71
2022/07/04 08:11:55;;;;;;;11.30;7.30;;;29.60;99.90;;;;;;5133507;27;20431;-71
2022/07/04 08:14:21;;;;;;;10.05;6.22;;;29.60;99.90;;;;;;5133068;27;20015;-66
2022/07/04 08:16:47;;;;;;;13.88;7.13;;;30.00;99.90;;;;;;5132395;27;20034;-70
2022/07/04 08:19:13;;;;;;;12.30;6.88;;;30.10;99.60;;;;;;5132512;27;20019;-71
2022/07/04 08:21:39;;;;;;;9.35;6.45;;;30.00;98.20;;;;;;5133295;27;20093;-72
2022/07/04 08:24:05;;;;;;;10.23;6.68;;;30.50;96.40;;;;;;5132895;27;20063;-70
2022/07/04 08:26:30;;;;;;;10.43;6.35;;;30.50;96.10;;;;;;5133252;27;20482;-71
2022/07/04 08:28:57;;;;;;;14.88;6.95;;;;;;;;;;5132680;27;20075;-72
2022/07/04 08:31:24;;;;;;;12.52;6.78;;;31.20;93.80;;;;;;5130475;27;20634;-71
2022/07/04 08:33:51;;;;;;;14.63;6.10;;;32.80;94.90;;;;;;5131633;27;20436;-70
2022/07/04 08:36:17;;;;;;;11.25;6.13;;;31.70;96.20;;;;;;5132598;27;20254;-72
2022/07/04 08:38:43;;;;;;;11.63;6.28;;;31.70;93.90;;;;;;5132732;27;20034;-66
2022/07/04 08:41:08;;;;;;;12.73;7.82;;;32.00;94.10;;;;;;5132461;27;20058;-72
2022/07/04 08:43:36;;;;;;;13.00;6.50;;;32.00;93.00;;;;;;5122226;27;20112;-70
2022/07/04 08:46:06;;;;;;;19.60;7.70;;;;;;;;;;5123500;27;20026;-71
2022/07/04 08:48:33;;;;;;;13.88;7.07;;;32.40;94.90;;;;;;5132403;27;20019;-72
2022/07/04 08:51:23;;;;;;;14.07;7.88;;;32.70;93.00;;;;;;5129843;27;20023;-71
2022/07/04 08:53:55;;;;;;;13.73;6.45;;;;;;;;;;5130398;27;20019;-72
2022/07/04 08:59:07;;;;;;;13.05;6.57;;;32.80;93.60;;;;;;5117336;27;20015;-64
2022/07/04 09:01:34;;;;;;;10.73;6.15;;;32.30;97.80;;;;;;5124973;27;20030;-72
2022/07/04 09:04:01;;;;;;;13.07;6.97;;;32.30;93.70;;;;;;5131691;27;20027;-71
2022/07/04 09:06:28;;;;;;;18.42;6.82;;;32.40;92.00;;;;;;5131708;27;20072;-72
2022/07/04 09:08:54;;;;;;;18.70;11.07;;;32.40;93.40;;;;;;5131349;27;20487;-72
2022/07/04 09:11:21;;;;;;;11.05;6.45;;;32.50;92.50;;;;;;5129285;27;20480;-72
2022/07/04 09:13:48;;;;;;;9.48;6.00;;;32.70;92.30;;;;;;5130339;27;20073;-72
2022/07/04 09:16:14;;;;;;;10.38;6.25;;;32.80;92.20;;;;;;5130876;27;20146;-71
2022/07/04 09:18:40;;;;;;;10.20;6.03;;;32.80;91.40;;;;;;5131012;27;20690;-72
2022/07/04 09:21:08;;;;;;;8.32;5.55;;;33.20;91.70;;;;;;5131521;27;20029;-72
2022/07/04 09:23:37;;;;;;;10.07;5.40;;;33.10;89.70;;;;;;5131208;27;20112;-71
2022/07/04 09:26:20;;;;;;;11.80;5.60;;;32.80;91.10;;;;;;5130420;27;20457;-72
2022/07/04 09:28:57;;;;;;;9.70;5.55;;;32.80;90.20;;;;;;5130945;27;20036;-72
2022/07/04 09:31:25;;;;;;;9.98;5.45;;;33.00;91.30;;;;;;5126399;27;20492;-72
2022/07/04 09:33:59;;;;;;;9.35;5.15;;;32.90;85.10;;;;;;5131078;27;20034;-72
2022/07/04 09:36:27;;;;;;;17.83;6.22;;;32.70;89.50;;;;;;5131278;27;20068;-72
2022/07/04 09:39:21;;;;;;;35.90;11.00;;;33.00;90.20;;;;;;5130940;27;20476;-72
2022/07/04 09:42:02;;;;;;;11.20;4.85;;;32.90;84.20;;;;;;5125587;27;20047;-71
2022/07/04 09:44:45;;;;;;;8.27;5.20;;;32.80;85.20;;;;;;5112709;27;20584;-71
2022/07/04 09:47:23;;;;;;;8.68;5.03;;;33.20;87.00;;;;;;5126312;28;20070;-71
2022/07/04 09:50:09;;;;;;;17.63;5.45;;;33.40;87.80;;;;;;5130013;27;20015;-71
2022/07/04 09:52:59;;;;;;;9.77;5.07;;;33.60;93.10;;;;;;5113947;28;20144;-73
2022/07/04 09:55:30;;;;;;;12.43;5.93;;;33.30;90.10;;;;;;5130192;27;20035;-72
2022/07/04 09:57:59;;;;;;;15.10;6.50;;;33.50;90.50;;;;;;5130426;28;20118;-72
2022/07/04 10:00:38;;;;;;;9.88;4.97;;;33.20;90.00;;;;;;5130734;27;20414;-73
2022/07/04 10:03:24;;;;;;;9.98;4.55;;;33.10;96.80;;;;;;5128536;28;20015;-69
2022/07/04 10:06:11;;;;;;;12.60;4.63;;;33.20;91.40;;;;;;5127018;28;20045;-70
2022/07/04 10:08:40;;;;;;;9.32;5.18;;;33.60;92.20;;;;;;5130020;27;20042;-72
2022/07/04 10:11:07;;;;;;;13.70;5.22;;;33.60;92.30;;;;;;5130412;27;20530;-73
2022/07/04 10:13:34;;;;;;;7.30;4.40;;;;;;;;;;5114584;28;20038;-72
2022/07/04 10:16:00;;;;;;;16.15;5.68;;;33.50;88.40;;;;;;5109921;28;20458;-72
2022/07/04 10:18:26;;;;;;;9.55;4.78;;;33.00;94.20;;;;;;5123473;27;20038;-72
2022/07/04 10:20:55;;;;;;;12.88;5.07;;;33.50;95.80;;;;;;5122471;28;20099;-66
2022/07/04 10:23:23;;;;;;;17.05;5.18;;;33.60;93.20;;;;;;5115076;28;20096;-69
2022/07/04 10:25:51;;;;;;;6.72;4.43;;;33.70;94.60;;;;;;5130339;27;20123;-72
2022/07/04 10:28:18;;;;;;;7.65;4.80;;;33.70;91.70;;;;;;5135319;27;20051;-71
2022/07/04 10:30:48;;;;;;;9.70;4.68;;;33.80;93.60;;;;;;5135544;27;20376;-73
2022/07/04 10:33:15;;;;;;;15.15;6.40;;;33.80;94.80;;;;;;5128123;27;20071;-72
2022/07/04 10:35:54;;;;;;;13.55;5.32;;;33.70;93.20;;;;;;5124911;27;20019;-71
2022/07/04 10:38:28;;;;;;;12.40;5.97;;;33.40;95.60;;;;;;5129251;27;20083;-70
2022/07/04 10:40:57;;;;;;;12.35;5.70;;;33.50;91.50;;;;;;5129271;27;20043;-71
2022/07/04 10:46:24;;;;;;;9.60;5.20;;;33.50;91.00;;;;;;5130056;27;20489;-72
2022/07/04 10:48:57;;;;;;;9.63;5.82;;;33.50;95.20;;;;;;5120023;27;20488;-72
2022/07/04 10:51:33;;;;;;;10.30;5.85;;;33.60;89.60;;;;;;5124407;27;20477;-70
2022/07/04 10:54:04;;;;;;;12.48;5.80;;;33.60;89.00;;;;;;5126523;27;20375;-72
2022/07/04 10:56:29;;;;;;;10.27;5.78;;;33.60;88.40;;;;;;5121560;27;20109;-72
2022/07/04 10:58:57;;;;;;;10.65;6.03;;;33.60;88.20;;;;;;5133830;27;20130;-72
2022/07/04 11:01:23;;;;;;;9.65;6.35;;;33.60;86.90;;;;;;5133513;27;20035;-70
2022/07/04 11:03:53;;;;;;;12.13;5.88;;;33.80;92.10;;;;;;5120626;27;20035;-72
2022/07/04 11:06:42;;;;;;;8.40;5.47;;;33.80;95.40;;;;;;5119652;27;20435;-71
2022/07/04 11:09:15;;;;;;;9.10;5.55;;;33.60;92.60;;;;;;5134179;27;20022;-70
2022/07/04 11:11:51;;;;;;;9.82;5.45;;;33.70;88.20;;;;;;5134325;27;20039;-71
2022/07/04 11:14:37;;;;;;;11.18;6.57;;;33.70;88.60;;;;;;5134711;27;20023;-71
2022/07/04 11:17:08;;;;;;;18.30;5.57;;;33.80;89.70;;;;;;5134440;27;20489;-70
2022/07/04 11:19:34;;;;;;;13.23;6.95;;;33.70;88.10;;;;;;5120242;27;20028;-70
2022/07/04 11:22:00;;;;;;;10.38;5.90;;;33.70;92.30;;;;;;5120915;27;20099;-71
2022/07/04 11:24:27;;;;;;;12.82;6.35;;;33.60;90.90;;;;;;5134121;27;20118;-71
2022/07/04 11:26:53;;;;;;;17.50;6.15;;;33.60;93.60;;;;;;5119494;27;20020;-72
2022/07/04 11:29:20;;;;;;;12.15;6.43;;;33.80;92.40;;;;;;5134557;27;20474;-71
2022/07/04 11:31:50;;;;;;;14.13;6.78;;;33.60;91.40;;;;;;5118485;27;20039;-71
2022/07/04 11:34:16;;;;;;;15.20;6.18;;;33.70;91.90;;;;;;5133944;27;20031;-71
2022/07/04 11:36:44;;;;;;;9.75;6.05;;;33.80;94.30;;;;;;5133640;27;20022;-72
2022/07/04 11:39:19;;;;;;;16.95;5.63;;;33.90;94.20;;;;;;5134165;27;20462;-69
2022/07/04 11:47:25;;;;;;;11.27;5.80;;;33.80;91.50;;;;;;5120224;27;20499;-71
2022/07/04 11:49:56;;;;;;;10.50;6.03;;;33.70;91.30;;;;;;5114728;27;20497;-69
2022/07/04 11:52:24;;;;;;;12.77;6.40;;;33.70;84.80;;;;;;5128784;27;20103;-70
2022/07/04 11:54:51;;;;;;;11.57;5.65;;;33.80;87.60;;;;;;5134369;27;20012;-74
2022/07/04 11:57:28;;;;;;;12.48;4.95;;;33.80;93.80;;;;;;5133236;27;20027;-73
2022/07/04 12:00:10;;;;;;;13.77;6.07;;;34.00;90.90;;;;;;5120790;27;20019;-70
2022/07/04 12:02:36;;;;;;;;;;;34.00;89.40;;;;;;5134372;27;20155;-72
2022/07/04 12:05:03;;;;;;;9.00;5.97;;;;;;;;;;5134074;27;19962;-72
2022/07/04 12:07:34;;;;;;;13.90;5.53;;;;;;;;;;5132986;27;20042;-72
2022/07/04 12:10:09;;;;;;;9.55;4.75;;;;;;;;;;5119223;27;20058;-72
2022/07/04 12:12:36;;;;;;;12.18;5.68;;;;;;;;;;5133529;27;20148;-71
2022/07/04 12:15:05;;;;;;;12.95;5.00;;;;;;;;;;5133195;27;20019;-68
2022/07/04 12:17:32;;;;;;;12.55;5.28;;;;;;;;;;5119206;27;20398;-72
2022/07/04 12:19:59;;;;;;;9.02;5.32;;;;;;;;;;5118878;27;20024;-72
2022/07/04 12:22:30;;;;;;;10.57;5.55;;;;;;;;;;5131084;27;20031;-69
2022/07/04 12:24:57;;;;;;;9.05;6.13;;;34.30;89.70;;;;;;5133248;27;20027;-72
2022/07/04 12:27:24;;;;;;;8.90;5.28;;;34.30;90.30;;;;;;5130498;27;20034;-72
2022/07/04 12:29:51;;;;;;;11.63;4.75;;;34.50;89.70;;;;;;5115927;27;20038;-69
2022/07/04 12:32:20;;;;;;;9.63;7.28;;;34.50;89.00;;;;;;5117963;27;20046;-70
2022/07/04 12:34:46;;;;;;;11.57;5.63;;;34.60;90.60;;;;;;5132435;27;20027;-71
2022/07/04 12:37:13;;;;;;;12.25;5.55;;;34.50;92.50;;;;;;5133008;27;20071;-71
2022/07/04 12:39:43;;;;;;;10.35;5.22;;;34.50;91.70;;;;;;5132597;27;20027;-70
2022/07/04 12:42:16;;;;;;;9.95;4.97;;;34.30;92.70;;;;;;5133175;27;20027;-69
2022/07/04 12:44:45;;;;;;;11.55;4.93;;;34.30;91.10;;;;;;5117907;27;20106;-70
2022/07/04 12:47:12;;;;;;;9.48;5.07;;;34.50;91.30;;;;;;5132614;27;20381;-68
2022/07/04 12:49:42;;;;;;;12.20;5.22;;;;;;;;;;5132311;27;20019;-71
2022/07/04 12:52:18;;;;;;;10.43;5.00;;;34.60;92.70;;;;;;5132889;27;20031;-71
2022/07/04 12:55:02;;;;;;;7.38;4.97;;;34.20;86.80;;;;;;5132894;27;20027;-69
2022/07/04 12:57:28;;;;;;;9.85;4.70;;;34.30;86.60;;;;;;5132551;27;20031;-73
2022/07/04 12:59:54;;;;;;;8.25;4.72;;;34.40;85.10;;;;;;5132888;27;20019;-72
2022/07/04 13:02:19;;;;;;;11.15;5.47;;;34.50;86.90;;;;;;5132400;27;20120;-72